Time;durP1;ratioP1;P1;durP2;ratioP2;P2;SDS_P1;SDS_P2;PMS_P1;PMS_P2;Temp;Humidity;BMP_temperature;BMP_pressure;BME280_temperature;BME280_humidity;BME280_pressure;Samples;Min_cycle;Max_cycle;Signal;HPM_P1;HPM_P2
2024/01/02 00:00:49;;;;;;;5.60;1.47;;;9.70;99.90;;;;;;4986487;28;20588;-79
2024/01/02 00:03:15;;;;;;;6.80;1.23;;;9.70;99.90;;;;;;4993258;28;20226;-79
2024/01/02 00:05:41;;;;;;;3.93;1.33;;;9.70;99.90;;;;;;4992845;28;20258;-79
2024/01/02 00:08:06;;;;;;;4.20;1.07;;;9.70;99.90;;;;;;4959680;28;20214;-79
2024/01/02 00:10:32;;;;;;;2.23;0.90;;;9.60;99.90;;;;;;4976260;28;20270;-79
2024/01/02 00:12:58;;;;;;;4.53;1.10;;;9.60;99.90;;;;;;4992988;28;20225;-79
2024/01/02 00:15:24;;;;;;;5.90;1.20;;;9.60;99.90;;;;;;4992883;28;20215;-79
2024/01/02 00:17:50;;;;;;;3.58;1.00;;;9.60;99.90;;;;;;4975103;28;20185;-79
2024/01/02 00:20:16;;;;;;;3.20;1.00;;;9.60;99.90;;;;;;4975371;28;20183;-79
2024/01/02 00:22:41;;;;;;;3.37;1.07;;;9.60;99.90;;;;;;4993395;28;20193;-79
2024/01/02 00:25:07;;;;;;;4.73;0.80;;;9.60;99.90;;;;;;4967470;28;20182;-79
2024/01/02 00:27:33;;;;;;;2.75;1.08;;;9.60;99.90;;;;;;4959074;28;20186;-79
2024/01/02 00:29:59;;;;;;;5.97;1.13;;;9.60;99.90;;;;;;4959550;28;20182;-78
2024/01/02 00:32:24;;;;;;;3.00;0.73;;;9.60;99.90;;;;;;4975549;28;20205;-78
2024/01/02 00:34:51;;;;;;;2.77;0.90;;;9.60;99.90;;;;;;4959462;28;20206;-78
2024/01/02 00:37:17;;;;;;;1.85;0.85;;;9.60;99.90;;;;;;4992733;28;20645;-78
2024/01/02 00:39:42;;;;;;;6.07;1.10;;;9.60;99.90;;;;;;4975242;28;20167;-79
2024/01/02 00:42:08;;;;;;;4.70;1.77;;;9.50;99.90;;;;;;4959226;28;20704;-77
2024/01/02 00:44:34;;;;;;;4.03;1.40;;;9.50;99.90;;;;;;4975086;28;20627;-78
2024/01/02 00:46:59;;;;;;;3.43;0.80;;;9.50;99.90;;;;;;4974909;28;20179;-78
2024/01/02 00:49:28;;;;;;;3.43;0.90;;;9.40;99.90;;;;;;4958898;28;20646;-78
2024/01/02 00:51:54;;;;;;;3.78;1.63;;;9.40;99.90;;;;;;4974981;28;20203;-78
2024/01/02 00:54:19;;;;;;;7.23;1.03;;;9.40;99.90;;;;;;4974452;28;20346;-79
2024/01/02 00:56:45;;;;;;;2.53;1.10;;;9.30;99.90;;;;;;4971842;28;20266;-79
2024/01/02 00:59:13;;;;;;;3.00;1.33;;;9.30;99.90;;;;;;4971254;28;20700;-79
2024/01/02 01:01:39;;;;;;;2.20;0.95;;;9.30;99.90;;;;;;4969986;28;20184;-80
2024/01/02 01:04:05;;;;;;;3.10;0.90;;;9.30;99.90;;;;;;4975057;28;20193;-79
2024/01/02 01:06:30;;;;;;;2.77;0.90;;;9.20;99.90;;;;;;4974550;28;20677;-80
2024/01/02 01:08:56;;;;;;;2.03;1.00;;;9.20;99.90;;;;;;4958772;28;20206;-79
2024/01/02 01:11:22;;;;;;;4.57;0.90;;;9.20;99.90;;;;;;4975230;28;20253;-79
2024/01/02 01:13:47;;;;;;;2.27;0.80;;;9.20;99.90;;;;;;4992557;28;20277;-79
2024/01/02 01:16:13;;;;;;;1.87;0.90;;;9.20;99.90;;;;;;4944494;28;20609;-79
2024/01/02 01:18:39;;;;;;;2.00;0.70;;;9.10;99.90;;;;;;4941841;28;20183;-79
2024/01/02 01:21:04;;;;;;;2.57;0.70;;;9.10;99.90;;;;;;4975066;28;20705;-79
2024/01/02 01:23:30;;;;;;;2.13;0.70;;;9.10;99.90;;;;;;4974828;28;20214;-79
2024/01/02 01:25:56;;;;;;;1.70;0.60;;;9.10;99.90;;;;;;4992116;28;20186;-79
2024/01/02 01:28:22;;;;;;;1.77;0.80;;;9.10;99.90;;;;;;4974814;28;20198;-79
2024/01/02 01:30:48;;;;;;;2.45;0.70;;;9.10;99.90;;;;;;4975033;28;20175;-79
2024/01/02 01:33:14;;;;;;;1.30;0.60;;;9.10;99.90;;;;;;4974765;28;20205;-79
2024/01/02 01:35:39;;;;;;;1.20;0.60;;;9.10;99.90;;;;;;4958968;28;20692;-80
2024/01/02 01:38:05;;;;;;;1.53;0.60;;;9.20;99.90;;;;;;4996483;28;20164;-81
2024/01/02 01:40:31;;;;;;;1.43;0.60;;;9.20;99.90;;;;;;4975233;28;20697;-79
2024/01/02 01:42:56;;;;;;;2.20;0.80;;;9.20;99.90;;;;;;4959590;28;20792;-79
2024/01/02 01:45:22;;;;;;;1.47;0.53;;;9.10;99.90;;;;;;4975032;28;20634;-79
2024/01/02 01:47:48;;;;;;;1.70;0.57;;;9.20;99.90;;;;;;4992333;28;20261;-79
2024/01/02 01:50:14;;;;;;;5.43;0.60;;;9.20;99.90;;;;;;4992473;28;20174;-79
2024/01/02 01:52:40;;;;;;;1.63;0.57;;;9.10;99.90;;;;;;4993568;28;20178;-79
2024/01/02 01:55:07;;;;;;;2.25;0.80;;;9.10;99.90;;;;;;4976340;28;20687;-79
2024/01/02 01:57:33;;;;;;;1.25;0.55;;;9.10;99.90;;;;;;4974758;28;20174;-79
2024/01/02 01:59:59;;;;;;;2.90;0.67;;;9.10;99.90;;;;;;4962429;28;20185;-79
2024/01/02 02:02:25;;;;;;;1.30;0.60;;;9.10;99.90;;;;;;4991797;28;20175;-80
2024/01/02 02:04:53;;;;;;;3.25;0.50;;;9.10;99.90;;;;;;4982936;28;20209;-80
2024/01/02 02:07:18;;;;;;;1.95;0.65;;;9.00;99.90;;;;;;4971384;28;20189;-80
2024/01/02 02:09:44;;;;;;;1.00;0.40;;;9.00;99.90;;;;;;4998991;28;20163;-81
2024/01/02 02:12:10;;;;;;;1.80;0.60;;;9.10;99.90;;;;;;4984745;28;20174;-81
2024/01/02 02:14:36;;;;;;;1.55;0.50;;;9.10;99.90;;;;;;4972098;28;20747;-80
2024/01/02 02:17:02;;;;;;;1.20;0.43;;;9.10;99.90;;;;;;4963811;28;20175;-80
2024/01/02 02:19:28;;;;;;;2.17;0.50;;;9.00;99.90;;;;;;4981792;28;20175;-81
2024/01/02 02:21:55;;;;;;;1.10;0.40;;;9.00;99.90;;;;;;4981513;28;20171;-81
2024/01/02 02:24:21;;;;;;;1.30;0.50;;;9.00;99.90;;;;;;4948113;28;20198;-82
2024/01/02 02:26:47;;;;;;;1.30;0.50;;;9.10;99.90;;;;;;4963622;28;20274;-82
2024/01/02 02:29:12;;;;;;;1.10;0.47;;;9.00;99.90;;;;;;4978871;28;20257;-81
2024/01/02 02:31:38;;;;;;;1.20;0.40;;;9.00;99.90;;;;;;4963919;28;20186;-82
2024/01/02 02:34:04;;;;;;;1.57;0.50;;;8.90;99.90;;;;;;4978376;28;20217;-82
2024/01/02 02:36:29;;;;;;;1.10;0.40;;;8.90;99.90;;;;;;4979504;28;20183;-82
2024/01/02 02:38:55;;;;;;;2.20;0.50;;;8.90;99.90;;;;;;4978854;28;20266;-82
2024/01/02 02:41:21;;;;;;;1.80;0.50;;;8.90;99.90;;;;;;4972624;28;20222;-82
2024/01/02 02:43:46;;;;;;;1.80;0.40;;;8.80;99.90;;;;;;4971490;28;20570;-82
2024/01/02 02:46:12;;;;;;;1.43;0.40;;;8.80;99.90;;;;;;4973822;28;20239;-83
2024/01/02 02:48:38;;;;;;;1.93;0.60;;;8.80;99.90;;;;;;4957403;28;20179;-83
2024/01/02 02:51:04;;;;;;;1.20;0.50;;;8.80;99.90;;;;;;4976313;28;20187;-82
2024/01/02 02:53:29;;;;;;;1.35;0.73;;;8.80;99.90;;;;;;4978000;28;20277;-82
2024/01/02 02:55:55;;;;;;;2.90;0.50;;;8.70;99.90;;;;;;4973995;28;20183;-82
2024/01/02 02:58:22;;;;;;;1.50;0.40;;;8.70;99.90;;;;;;4975136;28;20178;-82
2024/01/02 03:00:48;;;;;;;1.48;0.60;;;8.80;99.90;;;;;;4972577;28;20659;-82
2024/01/02 03:03:14;;;;;;;1.40;0.50;;;8.70;99.90;;;;;;4985706;28;20302;-83
2024/01/02 03:05:40;;;;;;;1.20;0.60;;;8.70;99.90;;;;;;4987096;28;20637;-83
2024/01/02 03:08:05;;;;;;;6.43;0.60;;;8.70;99.90;;;;;;4989163;28;20178;-83
2024/01/02 03:10:34;;;;;;;1.90;0.70;;;8.60;99.90;;;;;;5008011;28;20214;-82
2024/01/02 03:13:00;;;;;;;1.45;0.60;;;8.60;99.90;;;;;;5000171;28;20705;-83
2024/01/02 03:15:26;;;;;;;1.10;0.55;;;8.60;99.90;;;;;;4967032;28;20202;-83
2024/01/02 03:17:52;;;;;;;1.40;0.70;;;8.60;99.90;;;;;;4982681;28;20171;-83
2024/01/02 03:20:17;;;;;;;4.00;0.60;;;8.60;99.90;;;;;;4980302;28;20254;-83
2024/01/02 03:22:43;;;;;;;1.30;0.60;;;8.60;99.90;;;;;;4971429;28;20190;-83
2024/01/02 03:25:09;;;;;;;1.43;0.60;;;8.60;99.90;;;;;;4959530;28;20721;-82
2024/01/02 03:27:35;;;;;;;1.23;0.70;;;8.50;99.90;;;;;;4983150;28;20190;-82
2024/01/02 03:30:00;;;;;;;6.60;0.70;;;8.50;99.90;;;;;;4975017;28;20765;-82
2024/01/02 03:32:27;;;;;;;2.10;0.70;;;8.50;99.90;;;;;;4981756;28;20193;-82
2024/01/02 03:34:53;;;;;;;1.38;0.55;;;8.50;99.90;;;;;;4992544;28;20211;-82
2024/01/02 03:37:19;;;;;;;1.10;0.50;;;8.50;99.90;;;;;;4994308;28;20194;-82
2024/01/02 03:39:44;;;;;;;1.60;0.50;;;8.50;99.90;;;;;;5007012;28;20657;-82
2024/01/02 03:42:10;;;;;;;1.30;0.50;;;8.50;99.90;;;;;;4982624;28;20559;-82
2024/01/02 03:44:36;;;;;;;1.40;0.50;;;8.50;99.90;;;;;;4996137;28;20239;-82
2024/01/02 03:47:01;;;;;;;1.40;0.57;;;8.60;99.90;;;;;;4980111;28;20195;-82
2024/01/02 03:49:27;;;;;;;1.20;0.40;;;8.60;99.90;;;;;;4985911;28;20195;-82
2024/01/02 03:51:53;;;;;;;1.10;0.40;;;8.60;99.90;;;;;;4996072;28;20180;-82
2024/01/02 03:54:18;;;;;;;1.37;0.50;;;8.60;99.90;;;;;;4995390;28;20235;-81
2024/01/02 03:56:44;;;;;;;2.03;0.40;;;8.60;99.90;;;;;;4987178;28;20190;-81
2024/01/02 03:59:10;;;;;;;3.30;0.50;;;8.60;99.90;;;;;;4990895;28;20167;-82
2024/01/02 04:01:45;;;;;;;2.57;0.50;;;8.60;99.90;;;;;;4983114;28;20183;-81
2024/01/02 04:04:10;;;;;;;1.20;0.50;;;8.60;99.90;;;;;;4969283;28;20199;-81
2024/01/02 04:06:36;;;;;;;1.27;0.40;;;8.60;99.90;;;;;;4972452;28;20611;-82
2024/01/02 04:09:02;;;;;;;1.30;0.40;;;8.60;99.90;;;;;;5006648;28;20266;-82
2024/01/02 04:11:27;;;;;;;1.20;0.43;;;8.70;99.90;;;;;;4998895;28;20198;-81
2024/01/02 04:13:53;;;;;;;1.67;0.40;;;8.70;99.90;;;;;;5015762;28;20199;-82
2024/01/02 04:16:19;;;;;;;1.60;0.50;;;8.70;99.90;;;;;;4981022;28;20187;-81
2024/01/02 04:18:45;;;;;;;1.57;0.50;;;8.60;99.90;;;;;;4973986;28;20179;-81
2024/01/02 04:21:10;;;;;;;1.20;0.50;;;8.70;99.90;;;;;;4991883;28;20187;-81
2024/01/02 04:23:39;;;;;;;1.10;0.50;;;8.70;99.90;;;;;;4991990;28;20230;-82
2024/01/02 04:26:05;;;;;;;1.73;0.50;;;8.70;99.90;;;;;;4975403;28;20590;-81
2024/01/02 04:28:31;;;;;;;1.73;0.47;;;8.70;99.90;;;;;;4991680;28;20661;-82
2024/01/02 04:30:56;;;;;;;1.87;0.47;;;8.70;99.90;;;;;;4992987;28;20210;-81
2024/01/02 04:33:22;;;;;;;1.63;0.43;;;8.70;99.90;;;;;;4959410;28;20214;-81
2024/01/02 04:35:48;;;;;;;1.00;0.40;;;8.70;99.90;;;;;;4961702;28;20176;-79
2024/01/02 04:38:13;;;;;;;1.60;0.60;;;8.80;99.90;;;;;;4982371;28;20577;-80
2024/01/02 04:40:39;;;;;;;1.10;0.50;;;8.80;99.90;;;;;;4966310;28;20168;-79
2024/01/02 04:43:05;;;;;;;1.50;0.50;;;8.80;99.90;;;;;;4993044;28;20206;-80
2024/01/02 04:45:30;;;;;;;1.30;0.50;;;8.80;99.90;;;;;;4980941;28;20203;-79
2024/01/02 04:47:56;;;;;;;1.20;0.50;;;8.80;99.90;;;;;;4963280;28;20176;-79
2024/01/02 04:50:22;;;;;;;1.73;0.60;;;8.80;99.90;;;;;;4963350;28;20223;-79
2024/01/02 04:52:47;;;;;;;1.67;0.60;;;8.90;99.90;;;;;;4964870;28;20195;-79
2024/01/02 04:55:13;;;;;;;1.30;0.50;;;8.90;99.90;;;;;;4956545;28;20199;-82
2024/01/02 04:57:39;;;;;;;1.10;0.50;;;8.90;99.90;;;;;;4974434;28;20641;-82
2024/01/02 05:00:05;;;;;;;1.10;0.50;;;9.00;99.90;;;;;;4990650;28;20179;-83
2024/01/02 05:02:32;;;;;;;1.10;0.40;;;9.00;99.90;;;;;;4991711;28;20271;-83
2024/01/02 05:04:58;;;;;;;1.10;0.43;;;9.00;99.90;;;;;;4973887;28;20202;-74
2024/01/02 05:07:23;;;;;;;1.30;0.50;;;9.00;99.90;;;;;;4980031;28;20665;-73
2024/01/02 05:09:49;;;;;;;1.20;0.40;;;9.10;99.90;;;;;;4990045;28;20829;-73
2024/01/02 05:12:15;;;;;;;1.20;0.43;;;9.10;99.90;;;;;;4957738;28;20174;-74
2024/01/02 05:14:41;;;;;;;1.20;0.40;;;9.20;99.90;;;;;;4991585;28;20230;-73
2024/01/02 05:17:09;;;;;;;1.00;0.40;;;9.30;99.90;;;;;;4957976;28;20175;-73
2024/01/02 05:19:35;;;;;;;1.08;0.40;;;9.30;99.90;;;;;;4991758;28;20194;-73
2024/01/02 05:22:01;;;;;;;1.60;0.40;;;9.40;99.90;;;;;;4990418;28;20645;-78
2024/01/02 05:24:26;;;;;;;1.00;0.40;;;9.40;99.90;;;;;;4973984;28;20684;-78
2024/01/02 05:26:52;;;;;;;2.07;0.40;;;9.50;99.90;;;;;;4991088;28;20186;-78
2024/01/02 05:29:18;;;;;;;1.13;0.40;;;9.50;99.90;;;;;;4974102;28;20187;-78
2024/01/02 05:31:43;;;;;;;1.00;0.30;;;9.60;99.90;;;;;;4973677;28;20190;-78
2024/01/02 05:34:09;;;;;;;1.10;0.40;;;9.70;99.90;;;;;;4973608;28;20215;-78
2024/01/02 05:36:35;;;;;;;1.30;0.50;;;9.70;99.90;;;;;;4990768;28;20240;-78
2024/01/02 05:39:01;;;;;;;1.10;0.40;;;9.80;99.90;;;;;;4989878;28;20221;-78
2024/01/02 05:41:27;;;;;;;1.10;0.40;;;9.80;99.90;;;;;;4957674;28;20179;-78
2024/01/02 05:43:53;;;;;;;1.20;0.47;;;9.90;99.90;;;;;;4973551;28;20210;-78
2024/01/02 05:46:18;;;;;;;1.40;0.47;;;10.00;99.90;;;;;;4957419;28;20222;-78
2024/01/02 05:48:44;;;;;;;1.40;0.40;;;10.00;99.90;;;;;;4973686;28;20241;-77
2024/01/02 05:51:10;;;;;;;1.53;0.50;;;10.10;99.90;;;;;;4991254;28;20187;-78
2024/01/02 05:53:36;;;;;;;1.10;0.50;;;10.10;99.90;;;;;;4972977;28;20256;-78
2024/01/02 05:56:02;;;;;;;1.20;0.40;;;10.20;99.90;;;;;;4990436;28;20593;-78
2024/01/02 05:58:27;;;;;;;1.10;0.40;;;10.20;99.90;;;;;;4991536;28;20175;-78
2024/01/02 06:00:53;;;;;;;1.20;0.40;;;10.30;99.90;;;;;;4973597;28;20178;-77
2024/01/02 06:03:19;;;;;;;1.10;0.40;;;10.40;99.90;;;;;;4957597;28;20197;-77
2024/01/02 06:05:45;;;;;;;1.15;0.40;;;10.40;99.90;;;;;;4990619;28;20185;-77
2024/01/02 06:08:11;;;;;;;1.20;0.37;;;10.50;99.90;;;;;;4988281;28;20564;-76
2024/01/02 06:10:38;;;;;;;1.00;0.40;;;10.60;99.90;;;;;;4984563;28;20271;-76
2024/01/02 06:13:04;;;;;;;1.65;0.40;;;10.60;99.90;;;;;;4990490;28;20314;-77
2024/01/02 06:15:30;;;;;;;1.10;0.40;;;10.70;99.90;;;;;;4989468;28;20211;-77
2024/01/02 06:17:55;;;;;;;1.07;0.40;;;10.70;99.90;;;;;;4972059;28;20202;-77
2024/01/02 06:20:21;;;;;;;1.37;0.50;;;10.80;99.90;;;;;;4991337;28;20775;-77
2024/01/02 06:22:47;;;;;;;1.20;0.47;;;10.90;99.90;;;;;;4973599;28;20561;-77
2024/01/02 06:25:12;;;;;;;1.00;0.40;;;10.90;99.90;;;;;;4973521;28;20171;-77
2024/01/02 06:27:38;;;;;;;1.00;0.40;;;11.00;99.90;;;;;;4990862;28;20181;-77
2024/01/02 06:30:05;;;;;;;1.10;0.40;;;11.10;99.90;;;;;;4973871;28;20657;-77
2024/01/02 06:32:31;;;;;;;3.90;0.40;;;11.10;99.90;;;;;;4991394;28;20266;-78
2024/01/02 06:34:57;;;;;;;1.10;0.40;;;11.20;99.90;;;;;;4976936;28;20211;-77
2024/01/02 06:37:23;;;;;;;1.00;0.40;;;11.30;99.90;;;;;;4991054;28;20183;-77
2024/01/02 06:39:49;;;;;;;1.00;0.35;;;11.40;99.90;;;;;;4973332;28;20587;-77
2024/01/02 06:42:15;;;;;;;1.10;0.40;;;11.40;99.90;;;;;;4973799;28;20201;-78
2024/01/02 06:44:41;;;;;;;1.07;0.40;;;11.60;99.90;;;;;;4973590;28;20633;-78
2024/01/02 06:47:06;;;;;;;1.20;0.40;;;11.70;99.90;;;;;;4990220;28;20179;-77
2024/01/02 06:49:32;;;;;;;1.07;0.40;;;11.70;99.90;;;;;;4973147;28;20187;-77
2024/01/02 06:51:58;;;;;;;1.10;0.40;;;11.80;99.90;;;;;;4990828;28;20187;-77
2024/01/02 06:54:23;;;;;;;1.00;0.30;;;11.90;99.90;;;;;;4973061;28;20834;-77
2024/01/02 06:56:59;;;;;;;1.13;0.40;;;12.00;99.90;;;;;;4972996;28;20247;-78
2024/01/02 06:59:24;;;;;;;1.20;0.40;;;12.10;99.90;;;;;;4955935;28;20183;-78
2024/01/02 07:01:50;;;;;;;1.10;0.40;;;12.10;99.90;;;;;;4972903;28;21144;-78
2024/01/02 07:04:16;;;;;;;1.00;0.33;;;12.20;99.90;;;;;;4973005;28;20290;-79
2024/01/02 07:06:41;;;;;;;1.17;0.40;;;12.30;99.90;;;;;;4993041;28;20549;-78
2024/01/02 07:09:08;;;;;;;1.00;0.40;;;12.40;99.90;;;;;;4991876;28;20179;-79
2024/01/02 07:11:34;;;;;;;1.10;0.30;;;12.50;99.90;;;;;;4992751;28;20274;-79
2024/01/02 07:14:00;;;;;;;1.00;0.30;;;12.50;99.90;;;;;;4976309;28;20752;-79
2024/01/02 07:16:26;;;;;;;1.13;0.40;;;12.60;99.90;;;;;;4993418;28;20233;-78
2024/01/02 07:18:52;;;;;;;1.00;0.30;;;12.60;99.90;;;;;;4975947;28;20590;-78
2024/01/02 07:21:18;;;;;;;1.00;0.40;;;12.70;99.90;;;;;;4994011;28;20211;-78
2024/01/02 07:23:43;;;;;;;1.07;0.40;;;12.70;99.90;;;;;;4993439;28;20206;-77
2024/01/02 07:26:09;;;;;;;1.20;0.30;;;12.80;99.90;;;;;;4992979;28;20183;-78
2024/01/02 07:28:35;;;;;;;3.00;0.40;;;12.80;99.90;;;;;;4993716;28;20210;-78
2024/01/02 07:31:01;;;;;;;1.00;0.30;;;12.90;99.90;;;;;;4975714;28;20590;-78
2024/01/02 07:33:27;;;;;;;1.10;0.30;;;13.00;99.90;;;;;;4975815;28;20201;-77
2024/01/02 07:35:53;;;;;;;1.00;0.40;;;13.00;99.90;;;;;;4975444;28;20614;-78
2024/01/02 07:38:19;;;;;;;1.73;0.33;;;13.00;99.90;;;;;;4993386;28;20175;-78
2024/01/02 07:40:45;;;;;;;1.20;0.57;;;13.10;99.90;;;;;;4975881;28;20179;-78
2024/01/02 07:43:10;;;;;;;1.10;0.40;;;13.10;99.90;;;;;;4975566;28;20610;-78
2024/01/02 07:45:36;;;;;;;1.00;0.40;;;13.20;99.90;;;;;;4975856;28;20542;-78
2024/01/02 07:48:02;;;;;;;1.00;0.30;;;13.20;99.90;;;;;;4996132;28;20202;-78
2024/01/02 07:50:28;;;;;;;1.00;0.30;;;13.20;99.90;;;;;;4980143;28;20179;-78
2024/01/02 07:52:53;;;;;;;1.20;0.40;;;13.30;99.90;;;;;;4992742;28;20748;-78
2024/01/02 07:55:19;;;;;;;1.03;0.40;;;13.30;99.90;;;;;;4975819;28;20306;-78
2024/01/02 07:57:45;;;;;;;1.00;0.30;;;13.40;99.90;;;;;;4974550;28;20182;-78
2024/01/02 08:00:11;;;;;;;1.10;0.40;;;13.40;99.90;;;;;;4992471;28;20206;-79
2024/01/02 08:02:39;;;;;;;1.10;0.37;;;13.50;99.90;;;;;;4958962;28;20182;-79
2024/01/02 08:05:06;;;;;;;1.10;0.40;;;13.50;99.90;;;;;;4975024;28;20949;-78
2024/01/02 08:07:31;;;;;;;1.60;0.80;;;13.50;99.90;;;;;;4991896;28;20183;-79
2024/01/02 08:09:57;;;;;;;1.10;0.40;;;13.60;99.90;;;;;;4992120;28;20652;-79
2024/01/02 08:12:23;;;;;;;1.00;0.30;;;13.60;99.90;;;;;;4974868;28;20266;-79
2024/01/02 08:14:49;;;;;;;1.00;0.40;;;13.60;99.90;;;;;;4975109;28;20199;-78
2024/01/02 08:17:15;;;;;;;1.13;0.40;;;13.70;99.90;;;;;;4991785;28;20208;-79
2024/01/02 08:19:41;;;;;;;2.10;0.50;;;13.70;99.90;;;;;;4992363;28;20159;-78
2024/01/02 08:22:07;;;;;;;1.00;0.40;;;13.80;99.90;;;;;;4991680;28;20594;-79
2024/01/02 08:24:33;;;;;;;1.43;0.30;;;13.80;99.90;;;;;;4974100;28;20203;-78
2024/01/02 08:26:58;;;;;;;1.07;0.43;;;13.90;99.90;;;;;;4991939;28;20597;-79
2024/01/02 08:29:24;;;;;;;1.67;0.30;;;13.90;99.90;;;;;;4974799;28;20179;-78
2024/01/02 08:31:50;;;;;;;1.20;0.40;;;13.90;99.90;;;;;;4974724;28;20183;-78
2024/01/02 08:34:15;;;;;;;1.10;0.40;;;14.00;99.90;;;;;;4974742;28;20245;-78
2024/01/02 08:36:41;;;;;;;1.10;0.40;;;14.00;99.90;;;;;;4991644;28;20226;-78
2024/01/02 08:39:07;;;;;;;1.10;0.40;;;14.00;99.90;;;;;;4974608;28;20171;-78
2024/01/02 08:41:32;;;;;;;1.00;0.30;;;14.10;99.90;;;;;;4974707;28;20618;-79
2024/01/02 08:43:58;;;;;;;1.00;0.40;;;14.10;99.90;;;;;;4974528;28;20198;-79
2024/01/02 08:46:24;;;;;;;1.10;0.40;;;14.10;99.90;;;;;;4991734;28;20241;-79
2024/01/02 08:48:50;;;;;;;1.00;0.40;;;14.20;99.90;;;;;;4992108;28;20257;-79
2024/01/02 08:51:16;;;;;;;1.00;0.40;;;14.20;99.90;;;;;;4981937;28;20590;-79
2024/01/02 08:53:41;;;;;;;1.10;0.40;;;14.30;99.90;;;;;;4974056;28;20577;-79
2024/01/02 08:56:08;;;;;;;1.10;0.40;;;14.30;99.90;;;;;;4991478;28;20298;-78
2024/01/02 08:58:33;;;;;;;1.20;0.40;;;14.30;99.90;;;;;;4991700;28;20178;-79
2024/01/02 09:00:59;;;;;;;1.00;0.40;;;14.40;99.90;;;;;;4991881;28;20578;-79
2024/01/02 09:03:27;;;;;;;1.00;0.30;;;14.40;99.90;;;;;;4992148;28;20221;-79
2024/01/02 09:05:56;;;;;;;1.03;0.40;;;14.40;99.90;;;;;;4991371;28;20238;-80
2024/01/02 09:08:22;;;;;;;1.10;0.40;;;14.50;99.90;;;;;;4974517;28;20682;-79
2024/01/02 09:10:48;;;;;;;1.10;0.30;;;14.50;99.90;;;;;;4974078;28;20661;-79
2024/01/02 09:13:14;;;;;;;1.00;0.30;;;14.50;99.90;;;;;;4973956;28;20246;-79
2024/01/02 09:15:40;;;;;;;1.10;0.50;;;14.50;99.90;;;;;;4991801;28;20590;-79
2024/01/02 09:18:05;;;;;;;1.00;0.40;;;14.60;99.90;;;;;;4991348;28;20178;-79
2024/01/02 09:20:31;;;;;;;1.00;0.30;;;14.70;99.90;;;;;;4991169;28;20645;-79
2024/01/02 09:22:57;;;;;;;1.10;0.40;;;14.70;99.90;;;;;;4991170;28;20183;-79
2024/01/02 09:25:26;;;;;;;1.00;0.37;;;14.70;99.90;;;;;;4991693;28;20178;-79
2024/01/02 09:27:57;;;;;;;1.00;0.30;;;14.80;99.90;;;;;;4956791;28;20632;-79
2024/01/02 09:30:23;;;;;;;1.00;0.30;;;14.80;99.90;;;;;;4991198;28;20970;-79
2024/01/02 09:32:49;;;;;;;1.30;0.40;;;14.80;99.90;;;;;;4991249;28;20579;-78
2024/01/02 09:35:16;;;;;;;1.00;0.30;;;14.80;99.90;;;;;;4972755;28;20657;-80
2024/01/02 09:37:42;;;;;;;1.00;0.30;;;14.90;99.90;;;;;;4973554;28;20586;-79
2024/01/02 09:40:22;;;;;;;1.07;0.40;;;14.90;99.90;;;;;;4990319;28;20652;-79
2024/01/02 09:43:10;;;;;;;1.93;0.40;;;14.90;99.90;;;;;;4973799;28;20183;-79
2024/01/02 09:46:14;;;;;;;1.40;0.60;;;15.00;99.90;;;;;;4991150;28;20652;-79
2024/01/02 09:49:13;;;;;;;1.70;0.60;;;15.00;99.90;;;;;;4973324;28;20598;-79
2024/01/02 09:51:39;;;;;;;1.90;0.50;;;15.00;99.90;;;;;;4973363;28;20942;-79
2024/01/02 09:54:30;;;;;;;1.10;0.40;;;15.00;99.90;;;;;;4972841;28;20638;-79
2024/01/02 09:56:59;;;;;;;1.33;0.40;;;15.00;99.90;;;;;;4954613;28;20195;-78
2024/01/02 09:59:42;;;;;;;1.20;0.37;;;15.10;99.90;;;;;;4959293;28;20603;-79
2024/01/02 10:02:36;;;;;;;1.27;0.60;;;15.10;99.90;;;;;;4986349;28;20590;-80
2024/01/02 10:05:27;;;;;;;1.07;0.40;;;15.10;99.90;;;;;;4985093;28;20638;-78
2024/01/02 10:08:14;;;;;;;2.70;0.43;;;15.10;99.90;;;;;;4985612;28;20636;-74
2024/01/02 10:10:54;;;;;;;1.10;0.40;;;15.10;99.90;;;;;;4986992;28;20586;-74
2024/01/02 10:14:06;;;;;;;1.10;0.40;;;15.10;99.90;;;;;;4985600;28;21294;-74
2024/01/02 10:16:47;;;;;;;1.10;0.30;;;15.10;99.90;;;;;;4926758;29;20996;-73
2024/01/02 10:19:55;;;;;;;1.30;0.40;;;15.20;99.90;;;;;;5004437;23;20685;-82
2024/01/02 10:22:37;;;;;;;1.20;0.40;;;15.20;99.90;;;;;;4974254;28;21108;-82
2024/01/02 10:25:03;;;;;;;1.10;0.40;;;15.30;99.90;;;;;;4989161;28;20606;-83
2024/01/02 10:27:44;;;;;;;1.10;0.40;;;15.30;99.90;;;;;;4957814;28;20597;-82
2024/01/02 10:30:19;;;;;;;1.10;0.40;;;15.30;99.90;;;;;;4958990;28;20268;-82
2024/01/02 10:33:11;;;;;;;1.87;0.50;;;15.30;99.90;;;;;;4957730;28;20598;-82
2024/01/02 10:35:53;;;;;;;1.10;0.30;;;15.30;99.90;;;;;;4976649;28;20643;-82
2024/01/02 10:38:27;;;;;;;1.10;0.30;;;15.30;99.90;;;;;;4937921;28;20713;-81
2024/01/02 10:41:35;;;;;;;1.83;0.40;;;15.40;99.90;;;;;;4941480;28;20587;-82
2024/01/02 10:44:27;;;;;;;1.07;0.33;;;15.30;99.90;;;;;;4957521;28;20936;-83
2024/01/02 10:47:05;;;;;;;1.10;0.40;;;15.30;99.90;;;;;;4904273;28;20610;-82
2024/01/02 10:49:37;;;;;;;1.10;0.40;;;15.20;99.90;;;;;;4946217;28;20676;-82
2024/01/02 10:52:24;;;;;;;1.00;0.30;;;15.20;99.90;;;;;;4968919;28;20590;-82
2024/01/02 10:55:01;;;;;;;1.70;0.40;;;15.10;99.90;;;;;;4941703;28;20635;-80
2024/01/02 10:57:52;;;;;;;1.10;0.40;;;15.10;99.90;;;;;;4961532;28;20593;-81
2024/01/02 11:00:22;;;;;;;1.30;0.40;;;15.00;99.90;;;;;;5006651;28;20622;-82
2024/01/02 11:02:54;;;;;;;1.10;0.40;;;14.90;99.90;;;;;;4965456;28;20590;-82
2024/01/02 11:05:42;;;;;;;1.00;0.40;;;14.80;99.90;;;;;;4948856;28;20960;-81
2024/01/02 11:08:32;;;;;;;1.07;0.33;;;14.70;99.90;;;;;;4974209;28;20971;-81
2024/01/02 11:11:02;;;;;;;1.10;0.40;;;14.60;99.90;;;;;;4925525;28;20594;-81
2024/01/02 11:13:30;;;;;;;2.07;0.40;;;14.40;99.90;;;;;;4980820;28;20598;-81
2024/01/02 11:16:03;;;;;;;1.10;0.40;;;14.40;99.90;;;;;;4964436;28;20587;-81
2024/01/02 11:18:31;;;;;;;1.20;0.40;;;14.30;99.90;;;;;;4974103;28;20673;-81
2024/01/02 11:21:08;;;;;;;1.20;0.40;;;14.20;99.90;;;;;;4941430;28;20579;-82
2024/01/02 11:23:40;;;;;;;1.10;0.50;;;14.10;99.90;;;;;;4956681;28;20587;-81
2024/01/02 11:26:14;;;;;;;1.10;0.40;;;14.10;99.90;;;;;;4940517;28;20615;-81
2024/01/02 11:28:45;;;;;;;1.23;0.50;;;14.10;99.90;;;;;;4940638;28;20629;-79
2024/01/02 11:31:13;;;;;;;1.10;0.40;;;14.00;99.90;;;;;;4956658;28;20593;-80
2024/01/02 11:34:00;;;;;;;1.47;0.50;;;14.00;99.90;;;;;;4974397;28;20618;-80
2024/01/02 11:36:40;;;;;;;1.30;0.40;;;14.00;99.90;;;;;;4981877;28;20579;-81
2024/01/02 11:39:12;;;;;;;2.07;0.70;;;13.90;99.90;;;;;;4948701;28;20617;-80
2024/01/02 11:41:55;;;;;;;2.30;0.50;;;13.90;99.90;;;;;;4979050;28;20683;-79
2024/01/02 11:44:24;;;;;;;1.20;0.50;;;13.90;99.90;;;;;;4972722;28;20739;-82
2024/01/02 11:46:58;;;;;;;1.20;0.50;;;13.80;99.90;;;;;;4963055;28;20626;-81
2024/01/02 11:49:28;;;;;;;1.23;0.53;;;13.80;99.90;;;;;;4977217;28;20683;-81
2024/01/02 11:52:08;;;;;;;1.97;0.50;;;13.70;99.90;;;;;;4991486;28;20597;-81
2024/01/02 11:55:05;;;;;;;1.87;0.60;;;13.70;99.90;;;;;;4963416;28;20648;-81
2024/01/02 11:57:52;;;;;;;1.60;0.70;;;13.60;99.90;;;;;;4956048;28;20580;-81
2024/01/02 12:00:51;;;;;;;1.47;0.60;;;13.60;99.90;;;;;;4989459;28;20618;-80
2024/01/02 12:03:32;;;;;;;1.37;0.40;;;13.50;99.90;;;;;;4956704;28;20595;-78
2024/01/02 12:06:12;;;;;;;1.30;0.50;;;13.40;99.90;;;;;;4963715;28;21231;-77
2024/01/02 12:08:45;;;;;;;1.40;0.50;;;13.40;99.90;;;;;;4944515;28;20653;-78
2024/01/02 12:11:16;;;;;;;1.30;0.50;;;13.30;99.90;;;;;;4984316;28;20590;-78
2024/01/02 12:14:03;;;;;;;1.20;0.60;;;13.20;99.90;;;;;;4955692;28;20638;-78
2024/01/02 12:16:36;;;;;;;2.77;0.50;;;13.20;99.90;;;;;;4955513;28;20595;-79
2024/01/02 12:19:05;;;;;;;1.17;0.40;;;13.10;99.90;;;;;;4958885;28;21227;-80
2024/01/02 12:21:37;;;;;;;1.40;0.60;;;13.00;99.90;;;;;;4981069;28;20589;-79
2024/01/02 12:24:04;;;;;;;1.40;0.50;;;12.90;99.90;;;;;;4962008;28;20601;-78
2024/01/02 12:26:34;;;;;;;2.30;0.40;;;12.80;99.90;;;;;;4980370;28;20587;-78
2024/01/02 12:29:01;;;;;;;1.50;0.50;;;12.80;99.90;;;;;;4939310;28;21388;-78
2024/01/02 12:31:41;;;;;;;2.57;0.50;;;12.70;99.90;;;;;;4972970;28;20590;-78
2024/01/02 12:34:28;;;;;;;1.40;0.50;;;12.60;99.90;;;;;;4963056;28;20649;-79
2024/01/02 12:37:08;;;;;;;1.30;0.40;;;12.60;99.90;;;;;;4955132;28;20190;-81
2024/01/02 12:39:38;;;;;;;1.10;0.50;;;12.60;99.90;;;;;;4972569;28;21338;-81
2024/01/02 12:42:08;;;;;;;1.40;0.57;;;12.50;99.90;;;;;;4972484;28;21141;-80
2024/01/02 12:44:37;;;;;;;1.20;0.45;;;12.40;99.90;;;;;;4972657;28;20973;-80
2024/01/02 12:47:09;;;;;;;1.20;0.50;;;12.40;99.90;;;;;;4962926;28;20270;-80
2024/01/02 12:49:46;;;;;;;1.42;0.50;;;12.30;99.90;;;;;;4971343;28;20615;-81
2024/01/02 12:52:18;;;;;;;1.20;0.50;;;12.20;99.90;;;;;;4955572;28;20246;-81
2024/01/02 12:54:48;;;;;;;1.20;0.40;;;12.20;99.90;;;;;;4955218;28;21017;-81
2024/01/02 12:57:15;;;;;;;1.20;0.50;;;12.10;99.90;;;;;;4986137;28;20197;-81
2024/01/02 12:59:42;;;;;;;1.40;0.40;;;12.10;99.90;;;;;;4945898;28;20773;-80